Decoded Metar for YPAD (ADELAIDE in AUSTRALIA) (IATA:ADL) | Meteo·Mobile Aviation Weather
aviador You're here:

YPAD Decoded Metar

ADELAIDE in AUSTRALIA
Report Time2018-11-21 18:00:00
UTC Time2018-11-21 18:31:59
Flight Rules vfr VFR
Wind230° at 29 kt
W.Decomp.*RWY 23: 28.7 kt HW 4 kt LCW
RWY 30: 6.0 kt HW 28.4 kt LCW
W.Rank230° ranks 1
Current wind is above 230° avg. (12.0)
Visibility9999 m
Phenomena:Shower Rain
IcePellets
Clouds:Broken 020 Hf
Few 035 Hf
Broken 055 Hf
Expected CloudBase > 2,800 ft AGL from Temp-Dew spread
Ceiling5,500 ft
Temp13°C (ISA -2)
Dew Point06°C (63% RH)
AAT1.7°C
QNH1002 hPa
Density Alt279 ft
Elevation13 ft
Report Wrong Elevation
Raw Report
METAR YPAD 211800Z 23029KT 9999 FEW035 BKN055 13/06 Q1002
INTER 1800/1900 23030G40KT 3000 SHRAGS BKN020
INTER 1900/2100 5000 SHRA BKN025=

Extra information for YPAD:More info

Metar Taf Metar & Taf Last 4 Metars F.Rules Stats Wind Profile Meteogram Temp Stats Airport Information Weather charts Add Link Nearby VenuesMetar ALERT Operation Metar Decoded Social comments

Adelaide Airport Webcam